KSPF

Black Hills-Clyde Ice Field Airport

Spearfish, South Dakota, USA
METAR KSPF 232315Z AUTO 30011KT 10SM 02/M08 A3016 RMK AO2
Observed Flight Rules
Jan-23 @ 23:15 UTC (32 minutes ago)
Wind Visibility
300° at 11 knots 10 miles
Temperatures Readings
Current 2°C / 36°F
Dewpoint -8°C / 18°F
Humidity 48%
Altimeter 30.16" Hg
Pressure 1021 hPa
Elevation 1188
METAR KSPF 232315Z AUTO 30011KT 10SM 02/M08 A3016 RMK AO2
Observed Flight Rules
Jan-23 @ 23:15 UTC
(32 minutes ago)
Wind Visibility
300° at 11 knots 10 miles
Temperature Dewpoint
2°C / 36°F -8°C / 18°F
Humidity Altimeter Pressure
48% 30.16" Hg 1021 hPa